Time;durP1;ratioP1;P1;durP2;ratioP2;P2;SDS_P1;SDS_P2;PMS_P1;PMS_P2;Temp;Humidity;BMP_temperature;BMP_pressure;BME280_temperature;BME280_humidity;BME280_pressure;Samples;Min_cycle;Max_cycle;Signal;HPM_P1;HPM_P2
2022/09/25 00:00:17;;;;;;;;;;;;;;;9.88;63.97168;101750.9;;;;-74
2022/09/25 00:05:15;;;;;;;;;;;;;;;9.8;63.99219;101755.9;;;;-76
2022/09/25 00:10:15;;;;;;;;;;;;;;;9.77;64.13281;101758.7;;;;-76
2022/09/25 00:15:15;;;;;;;;;;;;;;;9.69;64.06543;101755.7;;;;-76
2022/09/25 00:17:04;;;;;;;2.5;1;;;;;;;;;;;;;-76
2022/09/25 00:20:15;;;;;;;;;;;;;;;9.62;64.24316;101755.4;;;;-76
2022/09/25 00:25:15;;;;;;;;;;;;;;;9.59;64.23926;101757.2;;;;-75
2022/09/25 00:30:16;;;;;;;;;;;;;;;9.49;64.33496;101756.1;;;;-75
2022/09/25 00:35:15;;;;;;;;;;;;;;;9.49;64.37988;101756.3;;;;-75
2022/09/25 00:40:14;;;;;;;;;;;;;;;9.37;64.5293;101759.2;;;;-76
2022/09/25 00:45:19;;;;;;;;;;;;;;;9.35;64.21484;101757.3;;;;-77
2022/09/25 00:47:06;;;;;;;2.2;0.9;;;;;;;;;;;;;-75
2022/09/25 00:50:21;;;;;;;;;;;;;;;9.35;64.42578;101764.2;;;;-75
2022/09/25 00:55:16;;;;;;;;;;;;;;;9.31;64.43164;101763.4;;;;-78
2022/09/25 01:00:15;;;;;;;;;;;;;;;9.26;64.42383;101754.7;;;;-76
2022/09/25 01:05:17;;;;;;;;;;;;;;;9.22;64.48438;101753.4;;;;-77
2022/09/25 01:10:16;;;;;;;;;;;;;;;9.17;64.43262;101753.9;;;;-76
2022/09/25 01:15:16;;;;;;;;;;;;;;;9.06;64.62598;101749.2;;;;-77
2022/09/25 01:17:07;;;;;;;1.3;0.8;;;;;;;;;;;;;-76
2022/09/25 01:20:19;;;;;;;;;;;;;;;9.05;64.61426;101751.5;;;;-76
2022/09/25 01:25:19;;;;;;;;;;;;;;;9;64.7168;101750.8;;;;-75
2022/09/25 01:30:17;;;;;;;;;;;;;;;8.98;64.59375;101758.4;;;;-76
2022/09/25 01:35:20;;;;;;;;;;;;;;;8.98;64.52734;101761.4;;;;-76
2022/09/25 01:40:17;;;;;;;;;;;;;;;8.93;64.84961;101760.7;;;;-75
2022/09/25 01:45:18;;;;;;;;;;;;;;;8.86;64.72949;101754.1;;;;-75
2022/09/25 01:47:10;;;;;;;1.4;0.7;;;;;;;;;;;;;-76
2022/09/25 01:50:17;;;;;;;;;;;;;;;8.83;64.9043;101746.4;;;;-76
2022/09/25 01:55:17;;;;;;;;;;;;;;;8.81;64.62305;101740.5;;;;-76
2022/09/25 02:00:17;;;;;;;;;;;;;;;8.79;64.68555;101746.4;;;;-74
2022/09/25 02:05:17;;;;;;;;;;;;;;;8.68;64.68164;101745.4;;;;-76
2022/09/25 02:10:17;;;;;;;;;;;;;;;8.7;64.69434;101741.1;;;;-75
2022/09/25 02:15:20;;;;;;;;;;;;;;;8.66;64.84375;101737.3;;;;-76
2022/09/25 02:17:09;;;;;;;1.6;0.6;;;;;;;;;;;;;-76
2022/09/25 02:25:19;;;;;;;;;;;;;;;8.6;64.73633;101741.3;;;;-77
2022/09/25 02:30:15;;;;;;;;;;;;;;;8.58;64.75391;101752.8;;;;-76
2022/09/25 02:35:15;;;;;;;;;;;;;;;8.57;64.62012;101744.7;;;;-77
2022/09/25 02:40:15;;;;;;;;;;;;;;;8.52;64.62305;101745.3;;;;-76
2022/09/25 02:45:20;;;;;;;;;;;;;;;8.51;64.71094;101748.8;;;;-75
2022/09/25 02:47:14;;;;;;;1.3;0.6;;;;;;;;;;;;;-76
2022/09/25 02:50:19;;;;;;;;;;;;;;;8.43;64.62207;101751.6;;;;-75
2022/09/25 02:55:15;;;;;;;;;;;;;;;8.44;64.68945;101747.7;;;;-76
2022/09/25 03:00:16;;;;;;;;;;;;;;;8.41;64.56348;101746.2;;;;-77
2022/09/25 03:05:16;;;;;;;;;;;;;;;8.39;64.64844;101749.5;;;;-76
2022/09/25 03:10:14;;;;;;;;;;;;;;;8.33;64.72949;101758.8;;;;-75
2022/09/25 03:15:15;;;;;;;;;;;;;;;8.28;64.77734;101754.3;;;;-76
2022/09/25 03:17:09;;;;;;;1.5;0.6;;;;;;;;;;;;;-76
2022/09/25 03:20:15;;;;;;;;;;;;;;;8.26;64.91797;101745.2;;;;-75
2022/09/25 03:25:15;;;;;;;;;;;;;;;8.19;64.80664;101746;;;;-75
2022/09/25 03:30:15;;;;;;;;;;;;;;;8.2;64.55469;101743.5;;;;-76
2022/09/25 03:35:14;;;;;;;;;;;;;;;8.17;64.72656;101748.4;;;;-76
2022/09/25 03:40:15;;;;;;;;;;;;;;;8.14;64.74414;101745.7;;;;-76
2022/09/25 03:45:15;;;;;;;;;;;;;;;8.09;64.73633;101744.2;;;;-75
2022/09/25 03:47:08;;;;;;;0.8;0.5;;;;;;;;;;;;;-77
2022/09/25 03:50:15;;;;;;;;;;;;;;;8.07;64.86621;101744.9;;;;-76
2022/09/25 03:55:18;;;;;;;;;;;;;;;8;64.76758;101744.3;;;;-76
2022/09/25 04:00:15;;;;;;;;;;;;;;;8.02;64.96973;101740.9;;;;-77
2022/09/25 04:05:14;;;;;;;;;;;;;;;8.01;64.69043;101737.9;;;;-76
2022/09/25 04:10:15;;;;;;;;;;;;;;;7.97;64.99414;101733.6;;;;-75
2022/09/25 04:15:15;;;;;;;;;;;;;;;7.93;64.83398;101729.8;;;;-76
2022/09/25 04:17:08;;;;;;;1.8;0.5;;;;;;;;;;;;;-76
2022/09/25 04:20:15;;;;;;;;;;;;;;;7.92;64.75488;101727.6;;;;-77
2022/09/25 04:25:14;;;;;;;;;;;;;;;7.89;64.93945;101723.8;;;;-76
2022/09/25 04:30:15;;;;;;;;;;;;;;;7.9;64.88574;101715.9;;;;-77
2022/09/25 04:35:14;;;;;;;;;;;;;;;7.86;64.93359;101712;;;;-75
2022/09/25 04:40:15;;;;;;;;;;;;;;;7.83;64.88477;101720.8;;;;-74
2022/09/25 04:45:16;;;;;;;;;;;;;;;7.81;64.73926;101714.7;;;;-76
2022/09/25 04:47:09;;;;;;;1.4;0.6;;;;;;;;;;;;;-76
2022/09/25 04:50:14;;;;;;;;;;;;;;;7.75;64.7959;101724.8;;;;-75
2022/09/25 04:55:15;;;;;;;;;;;;;;;7.72;64.7373;101720.1;;;;-75
2022/09/25 05:00:17;;;;;;;;;;;;;;;7.73;64.93555;101716.6;;;;-74
2022/09/25 05:05:15;;;;;;;;;;;;;;;7.68;64.85156;101723.7;;;;-75
2022/09/25 05:10:15;;;;;;;;;;;;;;;7.67;64.71777;101723.1;;;;-73
2022/09/25 05:15:15;;;;;;;;;;;;;;;7.64;64.86816;101723.1;;;;-75
2022/09/25 05:17:10;;;;;;;1.5;0.6;;;;;;;;;;;;;-74
2022/09/25 05:20:15;;;;;;;;;;;;;;;7.65;64.78125;101720;;;;-76
2022/09/25 05:25:14;;;;;;;;;;;;;;;7.6;64.69727;101714.4;;;;-75
2022/09/25 05:30:15;;;;;;;;;;;;;;;7.58;64.83691;101718.2;;;;-73
2022/09/25 05:35:14;;;;;;;;;;;;;;;7.54;64.73145;101716.3;;;;-73
2022/09/25 05:40:15;;;;;;;;;;;;;;;7.57;64.61621;101723.5;;;;-75
2022/09/25 05:45:15;;;;;;;;;;;;;;;7.57;64.84668;101723;;;;-73
2022/09/25 05:47:10;;;;;;;2.2;0.7;;;;;;;;;;;;;-74
2022/09/25 05:50:15;;;;;;;;;;;;;;;7.61;64.66504;101720.7;;;;-75
2022/09/25 05:55:15;;;;;;;;;;;;;;;7.6;64.73047;101728;;;;-73
2022/09/25 06:00:15;;;;;;;;;;;;;;;7.71;64.58105;101731.3;;;;-76
2022/09/25 06:05:14;;;;;;;;;;;;;;;7.79;64.48242;101733.6;;;;-76
2022/09/25 06:10:14;;;;;;;;;;;;;;;7.94;64.37207;101726.5;;;;-73
2022/09/25 06:15:14;;;;;;;;;;;;;;;8.11;64.08691;101721.5;;;;-75
2022/09/25 06:17:11;;;;;;;1;0.6;;;;;;;;;;;;;-75
2022/09/25 06:20:15;;;;;;;;;;;;;;;8.32;63.97363;101725.5;;;;-74
2022/09/25 06:25:15;;;;;;;;;;;;;;;8.54;63.55371;101728.8;;;;-75
2022/09/25 06:30:15;;;;;;;;;;;;;;;8.74;63.5498;101729.2;;;;-74
2022/09/25 06:35:14;;;;;;;;;;;;;;;9.01;63.66699;101732.3;;;;-74
2022/09/25 06:40:14;;;;;;;;;;;;;;;9.28;63.1084;101724.2;;;;-74
2022/09/25 06:45:15;;;;;;;;;;;;;;;9.57;62.76074;101725.3;;;;-71
2022/09/25 06:47:12;;;;;;;1.7;0.5;;;;;;;;;;;;;-71
2022/09/25 06:50:14;;;;;;;;;;;;;;;9.8;62.69531;101730.4;;;;-71
2022/09/25 06:55:14;;;;;;;;;;;;;;;10.12;62.37402;101736.7;;;;-71
2022/09/25 07:00:15;;;;;;;;;;;;;;;10.44;62.24219;101724.7;;;;-72
2022/09/25 07:05:17;;;;;;;;;;;;;;;10.74;61.6709;101724.1;;;;-74
2022/09/25 07:10:14;;;;;;;;;;;;;;;11.1;61.58887;101719.5;;;;-74
2022/09/25 07:15:14;;;;;;;;;;;;;;;11.38;61.86328;101712.3;;;;-74
2022/09/25 07:17:12;;;;;;;1.8;0.7;;;;;;;;;;;;;-75
2022/09/25 07:20:15;;;;;;;;;;;;;;;11.78;60.55859;101711.4;;;;-75
2022/09/25 07:25:15;;;;;;;;;;;;;;;12.35;59.94336;101709.9;;;;-73
2022/09/25 07:30:15;;;;;;;;;;;;;;;12.85;59.59766;101713.5;;;;-74
2022/09/25 07:35:14;;;;;;;;;;;;;;;13.29;59.60352;101704.9;;;;-75
2022/09/25 07:40:14;;;;;;;;;;;;;;;13.54;59.2207;101708.5;;;;-75
2022/09/25 07:45:14;;;;;;;;;;;;;;;13.61;59.12891;101709.7;;;;-73
2022/09/25 07:47:14;;;;;;;1.8;0.5;;;;;;;;;;;;;-74
2022/09/25 07:50:14;;;;;;;;;;;;;;;13.73;58.75293;101709.1;;;;-75
2022/09/25 07:55:17;;;;;;;;;;;;;;;13.9;58.93359;101712;;;;-74
2022/09/25 08:00:29;;;;;;;;;;;;;;;14.1;58.62305;101719.8;;;;-74
2022/09/25 08:05:14;;;;;;;;;;;;;;;14.28;58.52441;101723.4;;;;-72
2022/09/25 08:10:14;;;;;;;;;;;;;;;14.36;58.27539;101729.3;;;;-70
2022/09/25 08:15:15;;;;;;;;;;;;;;;14.35;58.39746;101727.9;;;;-69
2022/09/25 08:17:15;;;;;;;1.5;0.5;;;;;;;;;;;;;-70
2022/09/25 08:20:14;;;;;;;;;;;;;;;14.52;58.91504;101726;;;;-70
2022/09/25 08:25:14;;;;;;;;;;;;;;;15.05;58.6582;101726.4;;;;-77
2022/09/25 08:30:16;;;;;;;;;;;;;;;15.79;56.99902;101720.6;;;;-75
2022/09/25 08:35:14;;;;;;;;;;;;;;;16.49;56.23145;101721.7;;;;-74
2022/09/25 08:40:19;;;;;;;;;;;;;;;17.26;55.08496;101710.3;;;;-74
2022/09/25 08:50:17;;;;;;;;;;;;;;;18.33;53.80957;101710.3;;;;-75
2022/09/25 08:55:16;;;;;;;;;;;;;;;18.77;53.16016;101709.9;;;;-75
2022/09/25 09:00:20;;;;;;;;;;;;;;;19.25;52.36328;101705.1;;;;-75
2022/09/25 09:05:19;;;;;;;;;;;;;;;19.63;51.46289;101702.2;;;;-73
2022/09/25 09:10:22;;;;;;;;;;;;;;;19.99;50.96875;101697.4;;;;-75
2022/09/25 09:15:25;;;;;;;;;;;;;;;20.36;50.1543;101697.3;;;;-75
2022/09/25 09:17:23;;;;;;;1.2;0.5;;;;;;;;;;;;;-75
2022/09/25 09:20:21;;;;;;;;;;;;;;;20.7;49.19824;101695.5;;;;-74
2022/09/25 09:25:21;;;;;;;;;;;;;;;20.83;48.70996;101702.9;;;;-73
2022/09/25 09:30:21;;;;;;;;;;;;;;;20.91;48.69531;101699.1;;;;-74
2022/09/25 09:35:20;;;;;;;;;;;;;;;21.27;48.03613;101698.7;;;;-75
2022/09/25 09:40:21;;;;;;;;;;;;;;;21.19;47.36426;101701.8;;;;-74
2022/09/25 09:45:19;;;;;;;;;;;;;;;20.9;47.68652;101697;;;;-75
2022/09/25 09:47:28;;;;;;;1.3;0.5;;;;;;;;;;;;;-74
2022/09/25 09:50:23;;;;;;;;;;;;;;;20.82;48.09082;101695.5;;;;-74
2022/09/25 09:55:22;;;;;;;;;;;;;;;21.1;48.24609;101691.8;;;;-74
2022/09/25 10:00:17;;;;;;;;;;;;;;;21.47;47.80566;101686.9;;;;-74
2022/09/25 10:05:20;;;;;;;;;;;;;;;21.52;46.45898;101677.9;;;;-74
2022/09/25 10:10:17;;;;;;;;;;;;;;;21.26;46.93652;101675.9;;;;-74
2022/09/25 10:15:22;;;;;;;;;;;;;;;21.25;47.67871;101670.8;;;;-74
2022/09/25 10:17:26;;;;;;;1.6;0.5;;;;;;;;;;;;;-78
2022/09/25 10:20:22;;;;;;;;;;;;;;;21.76;47.11426;101671.9;;;;-75
2022/09/25 10:25:14;;;;;;;;;;;;;;;22.05;46.14746;101676.5;;;;-75
2022/09/25 10:30:22;;;;;;;;;;;;;;;21.75;45.71582;101675;;;;-75
2022/09/25 10:35:21;;;;;;;;;;;;;;;21.51;46.11426;101671.5;;;;-75
2022/09/25 10:40:25;;;;;;;;;;;;;;;21.35;46.68262;101671;;;;-74
2022/09/25 10:45:33;;;;;;;;;;;;;;;21.11;47.11523;101672.1;;;;-74
2022/09/25 10:50:20;;;;;;;;;;;;;;;20.72;48.22852;101667.3;;;;-75
2022/09/25 10:55:24;;;;;;;;;;;;;;;20.37;49.38965;101666.4;;;;-75
2022/09/25 11:00:22;;;;;;;;;;;;;;;20.06;49.35547;101671.9;;;;-74
2022/09/25 11:05:18;;;;;;;;;;;;;;;19.72;50.70898;101680.5;;;;-75
2022/09/25 11:10:26;;;;;;;;;;;;;;;19.38;51.0918;101681.4;;;;-74
2022/09/25 11:15:19;;;;;;;;;;;;;;;19.05;51.81641;101672.6;;;;-74
2022/09/25 11:17:40;;;;;;;1;0.4;;;;;;;;;;;;;-74
2022/09/25 11:20:32;;;;;;;;;;;;;;;18.77;52.52246;101671.2;;;;-75
2022/09/25 11:25:17;;;;;;;;;;;;;;;18.56;53.15527;101667;;;;-73
2022/09/25 11:30:19;;;;;;;;;;;;;;;18.41;53.24121;101666.3;;;;-73
2022/09/25 11:35:28;;;;;;;;;;;;;;;18.38;53.07813;101660.2;;;;-74
2022/09/25 11:45:18;;;;;;;;;;;;;;;18.53;53.66406;101656.8;;;;-74
2022/09/25 11:47:39;;;;;;;1.2;0.5;;;;;;;;;;;;;-75
2022/09/25 11:50:16;;;;;;;;;;;;;;;18.56;53.56543;101652.6;;;;-74
2022/09/25 11:55:25;;;;;;;;;;;;;;;18.67;54.32813;101650;;;;-75
2022/09/25 12:00:20;;;;;;;;;;;;;;;19.04;54.91895;101636.9;;;;-75
2022/09/25 12:05:21;;;;;;;;;;;;;;;19.31;56.01074;101632.6;;;;-75
2022/09/25 12:10:21;;;;;;;;;;;;;;;19.55;55.8584;101626.1;;;;-75
2022/09/25 12:15:19;;;;;;;;;;;;;;;19.73;55.63086;101619.8;;;;-76
2022/09/25 12:17:42;;;;;;;1.1;0.4;;;;;;;;;;;;;-73
2022/09/25 12:20:21;;;;;;;;;;;;;;;19.92;55.2793;101617.5;;;;-73
2022/09/25 12:25:19;;;;;;;;;;;;;;;20.05;55.98926;101612.1;;;;-74
2022/09/25 12:30:19;;;;;;;;;;;;;;;20.09;55.55176;101604.5;;;;-75
2022/09/25 12:35:26;;;;;;;;;;;;;;;20.13;56.02246;101605.8;;;;-74
2022/09/25 12:40:24;;;;;;;;;;;;;;;20.08;55.45801;101599.3;;;;-74
2022/09/25 12:45:18;;;;;;;;;;;;;;;20.18;55.82324;101593.1;;;;-75
2022/09/25 12:47:44;;;;;;;0.9;0.4;;;;;;;;;;;;;-75
2022/09/25 12:50:18;;;;;;;;;;;;;;;20.12;54.82617;101587.2;;;;-74
2022/09/25 12:55:17;;;;;;;;;;;;;;;19.9;53.80664;101581.9;;;;-74
2022/09/25 13:00:18;;;;;;;;;;;;;;;19.78;53.90527;101582.3;;;;-74
2022/09/25 13:05:19;;;;;;;;;;;;;;;19.63;53.88867;101579;;;;-74
2022/09/25 13:10:23;;;;;;;;;;;;;;;19.48;53.69922;101577.1;;;;-74
2022/09/25 13:15:17;;;;;;;;;;;;;;;19.34;53.70508;101572.7;;;;-74
2022/09/25 13:17:44;;;;;;;1.4;0.3;;;;;;;;;;;;;-74
2022/09/25 13:20:27;;;;;;;;;;;;;;;19.19;53.58496;101570.8;;;;-73
2022/09/25 13:25:18;;;;;;;;;;;;;;;19.05;53.97754;101562.1;;;;-74
2022/09/25 13:30:25;;;;;;;;;;;;;;;18.9;53.95898;101557.9;;;;-74
2022/09/25 13:35:20;;;;;;;;;;;;;;;18.77;54.52344;101565.2;;;;-75
2022/09/25 13:45:25;;;;;;;;;;;;;;;18.54;55.3916;101551;;;;-75
2022/09/25 13:48:01;;;;;;;1.6;0.6;;;;;;;;;;;;;-76
2022/09/25 13:50:25;;;;;;;;;;;;;;;18.45;55.61914;101545.2;;;;-73
2022/09/25 13:55:19;;;;;;;;;;;;;;;18.43;55.86523;101544;;;;-76
2022/09/25 14:00:22;;;;;;;;;;;;;;;18.51;55.76172;101534.4;;;;-75
2022/09/25 14:05:16;;;;;;;;;;;;;;;18.51;55.85352;101530.2;;;;-73
2022/09/25 14:10:14;;;;;;;;;;;;;;;18.55;56.17578;101522.6;;;;-75
2022/09/25 14:15:19;;;;;;;;;;;;;;;18.62;55.71973;101521.6;;;;-74
2022/09/25 14:17:51;;;;;;;2.1;0.6;;;;;;;;;;;;;-74
2022/09/25 14:20:24;;;;;;;;;;;;;;;18.69;55.87598;101521.7;;;;-74
2022/09/25 14:25:31;;;;;;;;;;;;;;;18.74;55.75781;101513.4;;;;-74
2022/09/25 14:30:16;;;;;;;;;;;;;;;19.03;55.30469;101503.2;;;;-73
2022/09/25 14:35:27;;;;;;;;;;;;;;;19.13;54.47559;101498.4;;;;-74
2022/09/25 14:40:19;;;;;;;;;;;;;;;19.1;54.16504;101496.9;;;;-75
2022/09/25 14:45:29;;;;;;;;;;;;;;;19.11;54.0293;101501.3;;;;-75
2022/09/25 14:47:54;;;;;;;1.7;0.5;;;;;;;;;;;;;-74
2022/09/25 14:50:22;;;;;;;;;;;;;;;19.2;54.13184;101496.9;;;;-74
2022/09/25 14:55:19;;;;;;;;;;;;;;;19.34;52.89746;101483.5;;;;-75
2022/09/25 15:00:19;;;;;;;;;;;;;;;19.38;52.41113;101481;;;;-74
2022/09/25 15:05:31;;;;;;;;;;;;;;;19.43;52.23633;101474.1;;;;-75
2022/09/25 15:10:26;;;;;;;;;;;;;;;19.37;51.51172;101472.2;;;;-74
2022/09/25 15:15:16;;;;;;;;;;;;;;;19.35;51.86328;101475.8;;;;-73
2022/09/25 15:17:57;;;;;;;1.8;0.9;;;;;;;;;;;;;-75
2022/09/25 15:20:18;;;;;;;;;;;;;;;19.34;51.88379;101475.4;;;;-75
2022/09/25 15:25:22;;;;;;;;;;;;;;;19.37;51.58008;101471.7;;;;-76
2022/09/25 15:30:20;;;;;;;;;;;;;;;19.4;51.59473;101467.9;;;;-75
2022/09/25 15:35:18;;;;;;;;;;;;;;;19.45;51.56738;101470.1;;;;-74
2022/09/25 15:40:21;;;;;;;;;;;;;;;19.45;51.44141;101472.8;;;;-74
2022/09/25 15:45:25;;;;;;;;;;;;;;;19.34;51.54297;101470.4;;;;-73
2022/09/25 15:47:58;;;;;;;2.5;0.8;;;;;;;;;;;;;-75
2022/09/25 15:50:21;;;;;;;;;;;;;;;19.23;52.08691;101470.2;;;;-75
2022/09/25 15:55:16;;;;;;;;;;;;;;;19.12;52.56445;101476.4;;;;-74
2022/09/25 16:05:19;;;;;;;;;;;;;;;18.81;53.07227;101463.9;;;;-76
2022/09/25 16:10:28;;;;;;;;;;;;;;;18.67;53.85059;101459.4;;;;-75
2022/09/25 16:15:25;;;;;;;;;;;;;;;18.48;54.2373;101458.4;;;;-74
2022/09/25 16:18:01;;;;;;;51.7;21.8;;;;;;;;;;;;;-77
2022/09/25 16:20:25;;;;;;;;;;;;;;;18.28;54.37207;101465.7;;;;-77
2022/09/25 16:25:26;;;;;;;;;;;;;;;18.07;54.7998;101466;;;;-76
2022/09/25 16:30:21;;;;;;;;;;;;;;;17.92;54.87207;101466.6;;;;-75
2022/09/25 16:35:23;;;;;;;;;;;;;;;17.77;55.14648;101464.9;;;;-75
2022/09/25 16:40:23;;;;;;;;;;;;;;;17.64;55.29004;101464.4;;;;-75
2022/09/25 16:45:22;;;;;;;;;;;;;;;17.52;55.41211;101468.5;;;;-75
2022/09/25 16:48:14;;;;;;;57.5;28.4;;;;;;;;;;;;;-75
2022/09/25 16:50:15;;;;;;;;;;;;;;;17.34;55.37695;101457.8;;;;-75
2022/09/25 16:55:18;;;;;;;;;;;;;;;17.18;55.6416;101445.9;;;;-74
2022/09/25 17:00:17;;;;;;;;;;;;;;;17;55.83203;101428.1;;;;-76
2022/09/25 17:05:18;;;;;;;;;;;;;;;16.83;56.16113;101423.9;;;;-76
2022/09/25 17:10:15;;;;;;;;;;;;;;;16.64;55.52734;101419.7;;;;-77
2022/09/25 17:15:17;;;;;;;;;;;;;;;16.48;56.12793;101410.6;;;;-74
2022/09/25 17:18:09;;;;;;;36.2;19;;;;;;;;;;;;;-76
2022/09/25 17:20:18;;;;;;;;;;;;;;;16.27;56.16992;101391.6;;;;-75
2022/09/25 17:25:22;;;;;;;;;;;;;;;16.08;56.23633;101393.6;;;;-73
2022/09/25 17:30:15;;;;;;;;;;;;;;;15.85;56.25293;101394;;;;-75
2022/09/25 17:35:24;;;;;;;;;;;;;;;15.6;56.68164;101393.7;;;;-76
2022/09/25 17:40:15;;;;;;;;;;;;;;;15.39;56.94727;101388.4;;;;-74
2022/09/25 17:45:23;;;;;;;;;;;;;;;15.28;56.79883;101386;;;;-77
2022/09/25 17:48:09;;;;;;;18.4;9.6;;;;;;;;;;;;;-75
2022/09/25 17:50:15;;;;;;;;;;;;;;;15.11;56.66406;101388.8;;;;-76
2022/09/25 17:55:19;;;;;;;;;;;;;;;14.95;56.94727;101386.4;;;;-75
2022/09/25 18:00:15;;;;;;;;;;;;;;;14.82;57.06543;101380.5;;;;-75
2022/09/25 18:05:17;;;;;;;;;;;;;;;14.64;56.91895;101371.4;;;;-75
2022/09/25 18:10:16;;;;;;;;;;;;;;;14.5;56.91211;101364.5;;;;-74
2022/09/25 18:15:15;;;;;;;;;;;;;;;14.35;57.16211;101358.8;;;;-75
2022/09/25 18:18:10;;;;;;;10.2;4.7;;;;;;;;;;;;;-76
2022/09/25 18:25:15;;;;;;;;;;;;;;;14.12;57.44629;101352.1;;;;-76
2022/09/25 18:30:15;;;;;;;;;;;;;;;14.03;57.88379;101342.8;;;;-74
2022/09/25 18:35:15;;;;;;;;;;;;;;;13.98;57.94434;101333.9;;;;-76
2022/09/25 18:40:17;;;;;;;;;;;;;;;13.91;58.56445;101331.7;;;;-74
2022/09/25 18:45:15;;;;;;;;;;;;;;;13.86;58.75879;101331.7;;;;-75
2022/09/25 18:48:12;;;;;;;5;2.6;;;;;;;;;;;;;-74
2022/09/25 18:50:15;;;;;;;;;;;;;;;13.8;58.94141;101327;;;;-74
2022/09/25 18:55:14;;;;;;;;;;;;;;;13.73;59.10156;101315.7;;;;-75
2022/09/25 19:00:15;;;;;;;;;;;;;;;13.69;59.5;101312.7;;;;-75
2022/09/25 19:05:15;;;;;;;;;;;;;;;13.64;59.50488;101308.3;;;;-75
2022/09/25 19:10:14;;;;;;;;;;;;;;;13.61;59.74512;101304.5;;;;-74
2022/09/25 19:15:16;;;;;;;;;;;;;;;13.54;59.77051;101296.8;;;;-75
2022/09/25 19:18:14;;;;;;;4.2;2.1;;;;;;;;;;;;;-76
2022/09/25 19:20:16;;;;;;;;;;;;;;;13.46;59.72656;101290.2;;;;-75
2022/09/25 19:25:14;;;;;;;;;;;;;;;13.4;60.03027;101286;;;;-76
2022/09/25 19:30:19;;;;;;;;;;;;;;;13.34;60.0127;101280.5;;;;-75
2022/09/25 19:35:14;;;;;;;;;;;;;;;13.28;60.22852;101275.6;;;;-74
2022/09/25 19:45:14;;;;;;;;;;;;;;;13.22;60.26465;101270;;;;-76
2022/09/25 19:48:16;;;;;;;4.2;1.9;;;;;;;;;;;;;-75
2022/09/25 19:50:14;;;;;;;;;;;;;;;13.21;60.40918;101270.3;;;;-75
2022/09/25 19:55:14;;;;;;;;;;;;;;;13.18;60.91992;101268;;;;-74
2022/09/25 20:00:17;;;;;;;;;;;;;;;13.16;61.44336;101260.2;;;;-76
2022/09/25 20:05:15;;;;;;;;;;;;;;;13.16;61.28711;101246.2;;;;-74
2022/09/25 20:10:16;;;;;;;;;;;;;;;13.13;60.78906;101242;;;;-76
2022/09/25 20:15:14;;;;;;;;;;;;;;;13.1;61.16602;101237.8;;;;-76
2022/09/25 20:18:17;;;;;;;3.6;1.7;;;;;;;;;;;;;-73
2022/09/25 20:20:14;;;;;;;;;;;;;;;13.07;61.35156;101229.7;;;;-76
2022/09/25 20:25:14;;;;;;;;;;;;;;;13.05;61.31543;101225.7;;;;-75
2022/09/25 20:30:15;;;;;;;;;;;;;;;13.02;61.06543;101228.6;;;;-74
2022/09/25 20:35:14;;;;;;;;;;;;;;;12.99;61.21973;101228.3;;;;-74
2022/09/25 20:40:14;;;;;;;;;;;;;;;12.98;61.50684;101230.1;;;;-74
2022/09/25 20:45:14;;;;;;;;;;;;;;;12.95;61.41309;101223.9;;;;-74
2022/09/25 20:48:20;;;;;;;3.2;1.5;;;;;;;;;;;;;-76
2022/09/25 20:50:15;;;;;;;;;;;;;;;12.93;61.43262;101216.8;;;;-73
2022/09/25 20:55:14;;;;;;;;;;;;;;;12.9;61.96582;101213.1;;;;-76
2022/09/25 21:00:15;;;;;;;;;;;;;;;12.88;62.10742;101198.7;;;;-74
2022/09/25 21:05:15;;;;;;;;;;;;;;;12.82;62.23438;101195.6;;;;-74
2022/09/25 21:10:14;;;;;;;;;;;;;;;12.8;61.8623;101186.1;;;;-73
2022/09/25 21:15:14;;;;;;;;;;;;;;;12.77;62.47266;101177.8;;;;-74
2022/09/25 21:18:20;;;;;;;3.1;1.2;;;;;;;;;;;;;-74
2022/09/25 21:20:14;;;;;;;;;;;;;;;12.77;62.99805;101179.1;;;;-74
2022/09/25 21:25:14;;;;;;;;;;;;;;;12.75;63.0957;101165.4;;;;-74
2022/09/25 21:30:14;;;;;;;;;;;;;;;12.73;62.50098;101156.2;;;;-70
2022/09/25 21:35:14;;;;;;;;;;;;;;;12.73;63.23828;101153.4;;;;-71
2022/09/25 21:40:14;;;;;;;;;;;;;;;12.65;63.62891;101142.4;;;;-72
2022/09/25 21:45:14;;;;;;;;;;;;;;;12.62;63.44629;101132.4;;;;-71
2022/09/25 21:48:21;;;;;;;3.5;1.1;;;;;;;;;;;;;-70
2022/09/25 21:50:14;;;;;;;;;;;;;;;12.55;63.18945;101134.5;;;;-70
2022/09/25 21:55:16;;;;;;;;;;;;;;;12.52;63.55566;101125;;;;-71
2022/09/25 22:00:16;;;;;;;;;;;;;;;12.46;63.30078;101116.2;;;;-70
2022/09/25 22:05:14;;;;;;;;;;;;;;;12.42;63.67383;101110.2;;;;-71
2022/09/25 22:10:14;;;;;;;;;;;;;;;12.35;63.38379;101101.1;;;;-75
2022/09/25 22:15:16;;;;;;;;;;;;;;;12.33;63.95117;101086.7;;;;-75
2022/09/25 22:18:24;;;;;;;2.8;1.2;;;;;;;;;;;;;-76
2022/09/25 22:20:14;;;;;;;;;;;;;;;12.28;63.67676;101075.7;;;;-73
2022/09/25 22:25:14;;;;;;;;;;;;;;;12.27;63.51758;101063.8;;;;-74
2022/09/25 22:30:14;;;;;;;;;;;;;;;12.26;63.60547;101053.2;;;;-73
2022/09/25 22:35:14;;;;;;;;;;;;;;;12.25;64.01758;101046.1;;;;-76
2022/09/25 22:40:17;;;;;;;;;;;;;;;12.22;64.2373;101033.4;;;;-73
2022/09/25 22:45:14;;;;;;;;;;;;;;;12.24;64.44043;101022.8;;;;-74
2022/09/25 22:48:27;;;;;;;4.2;1.2;;;;;;;;;;;;;-75
2022/09/25 22:50:14;;;;;;;;;;;;;;;12.23;63.95898;101010.8;;;;-74
2022/09/25 22:55:14;;;;;;;;;;;;;;;12.23;63.99219;101000.8;;;;-74
2022/09/25 23:00:14;;;;;;;;;;;;;;;12.25;64.50977;100987.6;;;;-75
2022/09/25 23:05:15;;;;;;;;;;;;;;;12.24;64.68652;100977.6;;;;-74
2022/09/25 23:10:14;;;;;;;;;;;;;;;12.23;64.57227;100969.5;;;;-75
2022/09/25 23:15:14;;;;;;;;;;;;;;;12.25;64.5752;100960.3;;;;-74
2022/09/25 23:18:25;;;;;;;3.5;1.3;;;;;;;;;;;;;-74
2022/09/25 23:20:15;;;;;;;;;;;;;;;12.25;64.74414;100945.8;;;;-73
2022/09/25 23:25:14;;;;;;;;;;;;;;;12.24;65.08887;100938.4;;;;-74
2022/09/25 23:30:15;;;;;;;;;;;;;;;12.25;64.91113;100927.7;;;;-74
2022/09/25 23:35:15;;;;;;;;;;;;;;;12.23;64.77344;100922.5;;;;-74
2022/09/25 23:40:14;;;;;;;;;;;;;;;12.23;65.81055;100913.5;;;;-72
2022/09/25 23:45:14;;;;;;;;;;;;;;;12.23;64.69531;100906.7;;;;-74
2022/09/25 23:48:26;;;;;;;3.8;1.2;;;;;;;;;;;;;-77
2022/09/25 23:50:14;;;;;;;;;;;;;;;12.22;65.28516;100896;;;;-74
2022/09/25 23:55:16;;;;;;;;;;;;;;;12.23;65.43164;100891.1;;;;-73
